createdAt,value
2022-11-14T00:00:02.967Z,5.7
2022-11-14T00:20:02.897Z,5.7
2022-11-14T00:40:02.366Z,5.6
2022-11-14T01:00:03.104Z,5.6
2022-11-14T01:20:03.174Z,5.5
2022-11-14T01:40:02.809Z,5.3
2022-11-14T02:00:02.271Z,5.3
2022-11-14T02:20:05.209Z,5.2
2022-11-14T02:40:02.397Z,5.2
2022-11-14T03:00:03.034Z,5.2
2022-11-14T03:20:02.857Z,5.3
2022-11-14T03:40:02.544Z,5.1
2022-11-14T04:00:03.121Z,5.2
2022-11-14T04:20:03.339Z,4.9
2022-11-14T04:40:03.126Z,4.9
2022-11-14T05:00:02.686Z,4.8
2022-11-14T05:20:02.538Z,4.6
2022-11-14T05:40:02.944Z,4.5
2022-11-14T06:00:02.415Z,4.5
2022-11-14T06:20:03.108Z,4.5
2022-11-14T06:40:02.533Z,4.5
2022-11-14T07:00:03.074Z,4.5
2022-11-14T07:20:02.815Z,4.6
2022-11-14T07:40:02.482Z,4.6
2022-11-14T08:00:02.943Z,4.8
2022-11-14T08:20:02.507Z,4.6
2022-11-14T08:40:03.064Z,4.7
2022-11-14T09:00:02.627Z,5
2022-11-14T09:20:02.377Z,5.1
2022-11-14T09:40:02.993Z,5.4
2022-11-14T10:00:02.520Z,5.7
2022-11-14T10:20:02.524Z,6.9
2022-11-14T10:40:03.095Z,8.3
2022-11-14T11:00:02.979Z,9.2
2022-11-14T11:20:06.483Z,10
2022-11-14T11:40:03.071Z,10.5
2022-11-14T12:00:02.501Z,10.9
2022-11-14T12:20:02.184Z,11
2022-11-14T12:40:02.647Z,10.9
2022-11-14T13:00:03.271Z,10.7
2022-11-14T13:20:02.912Z,10.4
2022-11-14T13:40:02.223Z,10.1
2022-11-14T14:00:04.500Z,9.6
2022-11-14T14:20:03.235Z,9.3
2022-11-14T14:40:02.814Z,9
2022-11-14T15:00:02.418Z,8.7
2022-11-14T15:20:03.087Z,8.3
2022-11-14T15:40:02.938Z,7.9
2022-11-14T16:00:03.377Z,7.5
2022-11-14T16:20:02.290Z,7.4
2022-11-14T16:40:02.958Z,7.2
2022-11-14T17:00:02.396Z,7.1
2022-11-14T17:20:03.032Z,6.8
2022-11-14T17:40:02.675Z,6.5
2022-11-14T18:00:03.361Z,6.4
2022-11-14T18:20:02.227Z,6.2
2022-11-14T18:40:02.683Z,5.9
2022-11-14T19:00:03.462Z,5.7
2022-11-14T19:20:03.151Z,5.5
2022-11-14T19:40:02.645Z,5.2
2022-11-14T20:00:03.592Z,5
2022-11-14T20:20:02.616Z,4.8
2022-11-14T20:40:03.106Z,4.5
2022-11-14T21:00:02.771Z,4.5
2022-11-14T21:20:02.571Z,4.2
2022-11-14T21:40:02.937Z,4.1
2022-11-14T22:00:02.375Z,4
2022-11-14T22:20:02.292Z,3.9
2022-11-14T22:40:02.671Z,3.7
2022-11-14T23:00:03.052Z,3.4
2022-11-14T23:20:02.422Z,3.1
2022-11-14T23:40:02.727Z,3
